OOCL Oakland — 3EKJ6 — position and weather

sailwx.info

Track history (hours):
 
Tides and Currents Weather Stations Pressure Air Temp Water Temp Dewpoint Dewpoint Depression Visibility Wind Speed Wind Dir Waves Ship Positions

OOCL Oakland

Last reported at 2016-Apr-26 03:33 UTC. Time now 2016-May-01 04:15 UTC.
Position N 22°06' E 114°23'.

Length 280 m; draft 11.6 m.

Type: Ship. MMSI: 372703235.

Date/timePositionNaut miles runAvg speedWind from/ knotsBaromVisibWave heightAir tempDewpointWater temp
2016-Apr-26 03:33N 22°06' E 114°23'20 9.8
2016-Apr-26 01:33N 22°20' E 114°07'0 0.2
2016-Apr-26 00:32N 22°19' E 114°07'0 0.1
2016-Apr-25 23:32N 22°19' E 114°07'0 0.0
2016-Apr-25 22:29N 22°19' E 114°07'0 0.1
2016-Apr-25 21:32N 22°19' E 114°07'0 0.0
2016-Apr-25 20:32N 22°19' E 114°07'0 0.0
2016-Apr-25 19:29N 22°19' E 114°07'0 0.0
2016-Apr-25 18:29N 22°19' E 114°07'0 0.0
2016-Apr-25 17:32N 22°19' E 114°07'0 0.0
2016-Apr-25 16:32N 22°19' E 114°07'0 0.0
2016-Apr-25 15:29N 22°19' E 114°07'0 0.0
2016-Apr-25 14:29N 22°19' E 114°07'0 0.0
2016-Apr-25 13:32N 22°19' E 114°07'0 0.0
2016-Apr-25 12:27N 22°19' E 114°07'4 4.9
2016-Apr-25 11:32N 22°21' E 114°03'1 0.0
2016-Apr-24 15:26N 22°21' E 114°02'1111.2
2016-Apr-24 14:25N 22°13' E 114°10'8 9.2
2016-Apr-24 13:32N 22°08' E 114°18'8 2.5
2016-Apr-24 10:18N 22°12' E 114°25'7 9.4
2016-Apr-24 09:33N 22°08' E 114°32'15714.2
2016-Apr-23 22:32N 22°52' E 117°15'8419.2
2016-Apr-23 18:10N 23°47' E 118°25'4019.6
2016-Apr-23 16:09N 24°13' E 118°56'1619.0
2016-Apr-23 15:18N 24°25' E 119°09'1418.1
2016-Apr-23 14:33N 24°34' E 119°20'2517.5
2016-Apr-23 13:07N 24°51' E 119°40'32216.1
2016-Apr-22 17:05N 29°22' E 122°56'914.1
2016-Apr-22 16:28N 29°30' E 122°59'1313.8
2016-Apr-22 15:31N 29°42' E 123°04'1313.7
2016-Apr-22 14:33N 29°55' E 123°09'2013.7
2016-Apr-22 13:05N 30°13' E 123°17'2214.0
2016-Apr-22 11:32N 30°35' E 123°20'9313.2
2016-Apr-22 04:32N 31°19' E 121°45'4 2.0
2016-Apr-22 02:22N 31°20' E 121°40'0 0.0
2016-Apr-22 01:28N 31°20' E 121°40'0 0.0
2016-Apr-22 00:22N 31°20' E 121°40'0 0.0
2016-Apr-21 21:25N 31°20' E 121°40'0 0.0
2016-Apr-21 20:25N 31°20' E 121°40'0 0.0
2016-Apr-21 19:25N 31°20' E 121°40'0 0.0
2016-Apr-21 16:25N 31°20' E 121°40'0 0.0
2016-Apr-21 14:07N 31°20' E 121°40'0 0.0
2016-Apr-21 07:31N 31°20' E 121°40'0 0.0
2016-Apr-21 06:19N 31°20' E 121°40'0 0.0
2016-Apr-21 05:23N 31°20' E 121°40'2 2.2
2016-Apr-21 04:33N 31°20' E 121°42'1414.1
2016-Apr-21 03:33N 31°15' E 121°57'101 4.3
2016-Apr-20 04:03N 29°57' E 123°10'38115.3
2016-Apr-19 03:04N 24°35' E 119°20'2516.7
2016-Apr-19 01:33N 24°17' E 119°00'2516.7
2016-Apr-19 00:04N 24°00' E 118°40'1217.0
2016-Apr-18 23:23N 23°52' E 118°31'1617.2
2016-Apr-18 22:28N 23°41' E 118°19'24514.5
2016-Apr-18 05:33N 22°20' E 114°07'0 0.4
2016-Apr-18 04:28N 22°20' E 114°08'0 0.0
2016-Apr-18 03:25N 22°20' E 114°08'0 0.0
2016-Apr-18 02:31N 22°20' E 114°08'0 0.0
2016-Apr-18 01:25N 22°20' E 114°08'0 0.0
2016-Apr-18 00:31N 22°20' E 114°08'0 0.1
2016-Apr-17 23:31N 22°20' E 114°08'0 0.1
2016-Apr-17 22:31N 22°20' E 114°08'0 0.0
2016-Apr-17 21:28N 22°20' E 114°08'0 0.0
2016-Apr-17 20:19N 22°20' E 114°08'0 0.0
2016-Apr-17 19:31N 22°20' E 114°08'0 0.0
2016-Apr-17 18:28N 22°20' E 114°08'0 0.0
2016-Apr-17 17:31N 22°20' E 114°08'0 0.0
2016-Apr-17 16:16N 22°20' E 114°08'0 0.0
2016-Apr-17 15:31N 22°20' E 114°08'3 2.9
2016-Apr-17 14:33N 22°17' E 114°06'10 9.0
2016-Apr-17 13:28N 22°10' E 114°13'910.3
2016-Apr-17 12:33N 22°08' E 114°23'31116.3
2016-Apr-16 17:31N 22°31' E 119°58'1616.7
2016-Apr-16 16:33N 22°33' E 120°16'3 0.3
2016-Apr-16 04:33N 22°34' E 120°19'4 3.7
2016-Apr-16 03:33N 22°32' E 120°15'  
Track history (hours):
 
Tides and Currents Weather Stations Pressure Air Temp Water Temp Dewpoint Dewpoint Depression Visibility Wind Speed Wind Dir Waves Ship Positions

OOCL Oakland

Last reported at 2016-Apr-26 03:33 UTC. Time now 2016-May-01 04:15 UTC.
Position N 22°06' E 114°23'.

Length 280 m; draft 11.6 m.

Type: Ship. MMSI: 372703235.

Date/timePositionNaut miles runAvg speedWind from/ knotsBaromVisibWave heightAir tempDewpointWater temp
2016-Apr-26 03:33N 22°06' E 114°23'20 9.8
2016-Apr-26 01:33N 22°20' E 114°07'0 0.2
2016-Apr-26 00:32N 22°19' E 114°07'0 0.1
2016-Apr-25 23:32N 22°19' E 114°07'0 0.0
2016-Apr-25 22:29N 22°19' E 114°07'0 0.1
2016-Apr-25 21:32N 22°19' E 114°07'0 0.0
2016-Apr-25 20:32N 22°19' E 114°07'0 0.0
2016-Apr-25 19:29N 22°19' E 114°07'0 0.0
2016-Apr-25 18:29N 22°19' E 114°07'0 0.0
2016-Apr-25 17:32N 22°19' E 114°07'0 0.0
2016-Apr-25 16:32N 22°19' E 114°07'0 0.0
2016-Apr-25 15:29N 22°19' E 114°07'0 0.0
2016-Apr-25 14:29N 22°19' E 114°07'0 0.0
2016-Apr-25 13:32N 22°19' E 114°07'0 0.0
2016-Apr-25 12:27N 22°19' E 114°07'4 4.9
2016-Apr-25 11:32N 22°21' E 114°03'1 0.0
2016-Apr-24 15:26N 22°21' E 114°02'1111.2
2016-Apr-24 14:25N 22°13' E 114°10'8 9.2
2016-Apr-24 13:32N 22°08' E 114°18'8 2.5
2016-Apr-24 10:18N 22°12' E 114°25'7 9.4
2016-Apr-24 09:33N 22°08' E 114°32'15714.2
2016-Apr-23 22:32N 22°52' E 117°15'8419.2
2016-Apr-23 18:10N 23°47' E 118°25'4019.6
2016-Apr-23 16:09N 24°13' E 118°56'1619.0
2016-Apr-23 15:18N 24°25' E 119°09'1418.1
2016-Apr-23 14:33N 24°34' E 119°20'2517.5
2016-Apr-23 13:07N 24°51' E 119°40'32216.1
2016-Apr-22 17:05N 29°22' E 122°56'914.1
2016-Apr-22 16:28N 29°30' E 122°59'1313.8
2016-Apr-22 15:31N 29°42' E 123°04'1313.7
2016-Apr-22 14:33N 29°55' E 123°09'2013.7
2016-Apr-22 13:05N 30°13' E 123°17'2214.0
2016-Apr-22 11:32N 30°35' E 123°20'9313.2
2016-Apr-22 04:32N 31°19' E 121°45'4 2.0
2016-Apr-22 02:22N 31°20' E 121°40'0 0.0
2016-Apr-22 01:28N 31°20' E 121°40'0 0.0
2016-Apr-22 00:22N 31°20' E 121°40'0 0.0
2016-Apr-21 21:25N 31°20' E 121°40'0 0.0
2016-Apr-21 20:25N 31°20' E 121°40'0 0.0
2016-Apr-21 19:25N 31°20' E 121°40'0 0.0
2016-Apr-21 16:25N 31°20' E 121°40'0 0.0
2016-Apr-21 14:07N 31°20' E 121°40'0 0.0
2016-Apr-21 07:31N 31°20' E 121°40'0 0.0
2016-Apr-21 06:19N 31°20' E 121°40'0 0.0
2016-Apr-21 05:23N 31°20' E 121°40'2 2.2
2016-Apr-21 04:33N 31°20' E 121°42'1414.1
2016-Apr-21 03:33N 31°15' E 121°57'101 4.3
2016-Apr-20 04:03N 29°57' E 123°10'38115.3
2016-Apr-19 03:04N 24°35' E 119°20'2516.7
2016-Apr-19 01:33N 24°17' E 119°00'2516.7
2016-Apr-19 00:04N 24°00' E 118°40'1217.0
2016-Apr-18 23:23N 23°52' E 118°31'1617.2
2016-Apr-18 22:28N 23°41' E 118°19'24514.5
2016-Apr-18 05:33N 22°20' E 114°07'0 0.4
2016-Apr-18 04:28N 22°20' E 114°08'0 0.0
2016-Apr-18 03:25N 22°20' E 114°08'0 0.0
2016-Apr-18 02:31N 22°20' E 114°08'0 0.0
2016-Apr-18 01:25N 22°20' E 114°08'0 0.0
2016-Apr-18 00:31N 22°20' E 114°08'0 0.1
2016-Apr-17 23:31N 22°20' E 114°08'0 0.1
2016-Apr-17 22:31N 22°20' E 114°08'0 0.0
2016-Apr-17 21:28N 22°20' E 114°08'0 0.0
2016-Apr-17 20:19N 22°20' E 114°08'0 0.0
2016-Apr-17 19:31N 22°20' E 114°08'0 0.0
2016-Apr-17 18:28N 22°20' E 114°08'0 0.0
2016-Apr-17 17:31N 22°20' E 114°08'0 0.0
2016-Apr-17 16:16N 22°20' E 114°08'0 0.0
2016-Apr-17 15:31N 22°20' E 114°08'3 2.9
2016-Apr-17 14:33N 22°17' E 114°06'10 9.0
2016-Apr-17 13:28N 22°10' E 114°13'910.3
2016-Apr-17 12:33N 22°08' E 114°23'31116.3
2016-Apr-16 17:31N 22°31' E 119°58'1616.7
2016-Apr-16 16:33N 22°33' E 120°16'3 0.3
2016-Apr-16 04:33N 22°34' E 120°19'4 3.7
2016-Apr-16 03:33N 22°32' E 120°15'  

Dump ship's entire track history